Watson Lake, Canada
Current Conditions -  °F | °C
As of 5:00 PM on Wednesday 22 Oct 2014 (Local Time) from CYQH Reporting Station
Snow Showers Snow Showers  
Wind Chill: 28°   Ceiling: 1500
Heat Index: 34°   Visibility: 15mi
Dew Point: 30°   Wind: 7mph
Humidity: 87%   Direction: 150°SSE
Pressure: 29.48"   Gusts: NA
Location:  60.06°N, 128.71°W
Report Text: CYQH 230000Z 15006KT 15SM -SHSN OVC015 01/M01 A2948 RMK SC8CLIMAT 1.0/0.4/TRCM/TRMM SLP018
Loading
Personal Weather Stations






























Interactive Weather Map
Tropical Storm Tracking
New forecast layout! Learn more

10-Day Weather Forecast

Advertisements
Track Severe Weather on mobile